createdAt,value
2018-07-10T00:00:07.295Z,96701.48
2018-07-10T00:03:15.835Z,96692.81
2018-07-10T00:10:13.940Z,96693.41
2018-07-10T00:12:41.259Z,96687.80
2018-07-10T00:15:08.594Z,96685.33
2018-07-10T00:17:35.902Z,96682.07
2018-07-10T00:20:03.251Z,96685.39
2018-07-10T00:22:30.558Z,96688.23
2018-07-10T00:24:57.996Z,96688.83
2018-07-10T00:27:25.421Z,96689.30
2018-07-10T00:29:52.811Z,96695.06
2018-07-10T00:32:20.132Z,96689.70
2018-07-10T00:34:47.474Z,96693.28
2018-07-10T00:37:15.054Z,96694.28
2018-07-10T00:39:42.468Z,96692.94
2018-07-10T00:42:09.804Z,96692.63
2018-07-10T00:44:37.159Z,96691.19
2018-07-10T00:47:04.524Z,96689.84
2018-07-10T00:49:31.935Z,96684.48
2018-07-10T00:51:59.435Z,96682.77
2018-07-10T00:54:26.736Z,96679.53
2018-07-10T00:56:54.127Z,96674.66
2018-07-10T00:59:21.617Z,96673.34
2018-07-10T01:01:49.015Z,96675.66
2018-07-10T01:04:16.307Z,96675.07
2018-07-10T01:06:43.618Z,96671.53
2018-07-10T01:09:17.764Z,96660.16
2018-07-10T01:11:50.435Z,96667.11
2018-07-10T01:14:17.871Z,96666.98
2018-07-10T01:16:45.483Z,96666.36
2018-07-10T01:19:14.720Z,96661.02
2018-07-10T01:21:42.917Z,96658.19
2018-07-10T01:24:10.302Z,96662.83
2018-07-10T01:26:41.295Z,96661.67
2018-07-10T01:29:19.716Z,96632.83
2018-07-10T01:31:48.488Z,96656.36
2018-07-10T01:34:15.865Z,96659.73
2018-07-10T01:36:43.201Z,96661.37
2018-07-10T01:39:10.577Z,96659.38
2018-07-10T01:41:37.875Z,96657.80
2018-07-10T01:44:05.499Z,96668.82
2018-07-10T01:46:32.966Z,96665.05
2018-07-10T01:49:00.299Z,96659.09
2018-07-10T01:51:28.595Z,96658.64
2018-07-10T01:53:55.924Z,96652.30
2018-07-10T01:56:23.227Z,96651.62
2018-07-10T01:58:51.218Z,96657.16
2018-07-10T02:01:18.674Z,96646.87
2018-07-10T02:03:46.029Z,96651.28
2018-07-10T02:06:13.502Z,96648.10
2018-07-10T02:08:40.892Z,96638.83
2018-07-10T02:11:08.382Z,96636.38
2018-07-10T02:13:35.716Z,96635.70
2018-07-10T02:16:03.159Z,96627.89
2018-07-10T02:18:30.761Z,96628.06
2018-07-10T02:21:00.483Z,96629.59
2018-07-10T02:23:31.640Z,96631.25
2018-07-10T02:25:59.093Z,96633.51
2018-07-10T02:28:26.398Z,96625.76
2018-07-10T02:30:53.733Z,96624.27
2018-07-10T02:33:21.262Z,96621.80
2018-07-10T02:35:48.585Z,96616.69
2018-07-10T02:38:15.942Z,96613.59
2018-07-10T02:40:43.960Z,96611.61
2018-07-10T02:43:11.373Z,96612.53
2018-07-10T02:45:38.698Z,96606.84
2018-07-10T02:48:06.201Z,96605.87
2018-07-10T02:50:33.826Z,96601.63
2018-07-10T02:53:01.198Z,96601.32
2018-07-10T02:55:29.891Z,96600.00
2018-07-10T02:57:57.300Z,96588.23
2018-07-10T03:00:25.774Z,96589.89
2018-07-10T03:02:53.244Z,96592.88
2018-07-10T03:05:20.813Z,96603.07
2018-07-10T03:07:48.445Z,96532.50
2018-07-10T03:10:16.860Z,96606.08
2018-07-10T03:12:44.314Z,96601.87
2018-07-10T03:15:13.626Z,96603.94
2018-07-10T03:17:41.100Z,96601.17
2018-07-10T03:20:08.997Z,96601.56
2018-07-10T03:22:36.537Z,96604.08
2018-07-10T03:25:03.974Z,96609.27
2018-07-10T03:27:31.609Z,96603.01
2018-07-10T03:29:59.586Z,96602.56
2018-07-10T03:32:26.933Z,96601.69
2018-07-10T03:34:54.325Z,96605.06
2018-07-10T03:37:21.964Z,96606.39
2018-07-10T03:39:49.352Z,96599.92
2018-07-10T03:42:17.673Z,96604.87
2018-07-10T03:44:45.577Z,96605.00
2018-07-10T03:47:14.523Z,96597.80
2018-07-10T03:49:42.719Z,96586.50
2018-07-10T03:52:12.914Z,96608.95
2018-07-10T03:54:44.206Z,96609.09
2018-07-10T03:57:12.888Z,96610.20
2018-07-10T03:59:46.395Z,96607.16
2018-07-10T04:02:14.021Z,96602.00
2018-07-10T04:04:41.644Z,96608.25
2018-07-10T04:07:09.105Z,96607.27
2018-07-10T04:09:36.467Z,96604.30
2018-07-10T04:12:03.947Z,96605.08
2018-07-10T04:14:31.283Z,96605.45
2018-07-10T04:16:58.882Z,96597.87
2018-07-10T04:19:27.926Z,96594.51
2018-07-10T04:21:56.592Z,96590.25
2018-07-10T04:24:24.525Z,96593.67
2018-07-10T04:27:13.856Z,96588.83
2018-07-10T04:29:47.872Z,96585.18
2018-07-10T04:32:15.364Z,96588.70
2018-07-10T04:34:42.823Z,96590.03
2018-07-10T04:37:13.065Z,96584.25
2018-07-10T04:39:41.977Z,96586.35
2018-07-10T04:42:31.587Z,96593.71
2018-07-10T04:45:05.218Z,96591.12
2018-07-10T04:47:54.487Z,96590.39
2018-07-10T04:50:44.093Z,96593.91
2018-07-10T04:53:24.499Z,96588.16
2018-07-10T04:55:55.215Z,96584.42
2018-07-10T04:58:25.486Z,96554.55
2018-07-10T05:01:00.876Z,96582.18
2018-07-10T05:03:29.311Z,96586.16
2018-07-10T05:05:57.898Z,96583.88
2018-07-10T05:08:25.133Z,96580.20
2018-07-10T05:10:52.826Z,96576.14
2018-07-10T05:13:20.192Z,96574.78
2018-07-10T05:15:51.471Z,96579.87
2018-07-10T05:18:18.896Z,96573.41
2018-07-10T05:20:46.193Z,96578.45
2018-07-10T05:23:14.639Z,96576.41
2018-07-10T05:25:45.449Z,96580.37
2018-07-10T05:28:12.804Z,96586.91
2018-07-10T05:30:41.544Z,96581.97
2018-07-10T05:33:10.050Z,96585.84
2018-07-10T05:35:37.436Z,96586.66
2018-07-10T05:38:05.256Z,96582.83
2018-07-10T05:40:32.640Z,96580.77
2018-07-10T05:43:01.999Z,96578.80
2018-07-10T05:45:29.437Z,96576.95
2018-07-10T05:47:59.248Z,96575.08
2018-07-10T05:50:31.488Z,96577.67
2018-07-10T05:52:58.826Z,96576.20
2018-07-10T05:55:29.543Z,96579.92
2018-07-10T05:57:57.985Z,96587.28
2018-07-10T06:00:25.378Z,96574.44
2018-07-10T06:02:53.116Z,96578.58
2018-07-10T06:05:20.490Z,96581.97
2018-07-10T06:07:49.203Z,96556.09
2018-07-10T06:10:16.604Z,96585.98
2018-07-10T06:12:43.957Z,96583.75
2018-07-10T06:15:12.270Z,96578.13
2018-07-10T06:17:39.619Z,96578.17
2018-07-10T06:20:06.826Z,96576.48
2018-07-10T06:22:34.218Z,96574.56
2018-07-10T06:25:05.218Z,96584.28
2018-07-10T06:27:43.275Z,96578.06
2018-07-10T06:30:11.030Z,96584.49
2018-07-10T06:33:51.390Z,96593.98
2018-07-10T06:36:26.087Z,96589.56
2018-07-10T06:38:53.979Z,96584.95
2018-07-10T06:41:22.888Z,96578.33
2018-07-10T06:43:55.105Z,96577.73
2018-07-10T06:47:26.657Z,96582.43
2018-07-10T06:49:54.470Z,96584.21
2018-07-10T06:52:22.517Z,96583.30
2018-07-10T06:55:06.849Z,96581.91
2018-07-10T06:57:35.834Z,96580.10
2018-07-10T07:00:07.808Z,96571.67
2018-07-10T07:02:36.454Z,96577.19
2018-07-10T07:05:04.433Z,96578.80
2018-07-10T07:07:33.757Z,96583.38
2018-07-10T07:10:04.461Z,96580.42
2018-07-10T07:12:32.191Z,96579.44
2018-07-10T07:14:59.650Z,96577.05
2018-07-10T07:17:27.619Z,96579.58
2018-07-10T07:19:54.898Z,96582.96
2018-07-10T07:22:22.302Z,96590.86
2018-07-10T07:24:50.585Z,96582.11
2018-07-10T07:27:17.980Z,96583.03
2018-07-10T07:29:45.683Z,96575.88
2018-07-10T07:32:13.017Z,96579.31
2018-07-10T07:34:40.390Z,96575.17
2018-07-10T07:37:08.020Z,96574.62
2018-07-10T07:39:35.604Z,96560.84
2018-07-10T07:42:03.173Z,96573.76
2018-07-10T07:44:30.637Z,96569.95
2018-07-10T07:46:58.040Z,96563.06
2018-07-10T07:49:25.413Z,96573.38
2018-07-10T07:51:52.663Z,96570.27
2018-07-10T07:54:20.412Z,96575.26
2018-07-10T07:56:47.757Z,96563.95
2018-07-10T07:59:15.092Z,96566.27
2018-07-10T08:01:42.472Z,96556.91
2018-07-10T08:04:09.962Z,96552.38
2018-07-10T08:06:37.300Z,96549.05
2018-07-10T08:09:05.883Z,96548.05
2018-07-10T08:11:33.343Z,96547.39
2018-07-10T08:14:00.726Z,96545.58
2018-07-10T08:16:28.006Z,96540.72
2018-07-10T08:18:55.514Z,96537.36
2018-07-10T08:21:22.887Z,96536.84
2018-07-10T08:23:50.264Z,96543.05
2018-07-10T08:26:18.078Z,96540.62
2018-07-10T08:28:45.464Z,96472.31
2018-07-10T08:31:12.940Z,96540.98
2018-07-10T08:33:40.421Z,96540.18
2018-07-10T08:36:07.765Z,96540.49
2018-07-10T08:38:39.587Z,96540.23
2018-07-10T08:41:08.173Z,96538.94
2018-07-10T08:43:35.608Z,96530.94
2018-07-10T08:46:03.108Z,96530.00
2018-07-10T08:48:31.042Z,96526.80
2018-07-10T08:50:58.490Z,96536.70
2018-07-10T08:53:26.335Z,96539.44
2018-07-10T08:55:53.730Z,96543.11
2018-07-10T08:58:21.063Z,96549.74
2018-07-10T09:00:48.462Z,96545.75
2018-07-10T09:03:15.241Z,96545.63
2018-07-10T09:05:42.030Z,96550.45
2018-07-10T09:08:09.181Z,96549.32
2018-07-10T09:10:35.926Z,96546.88
2018-07-10T09:13:02.680Z,96554.48
2018-07-10T09:15:31.437Z,96550.73
2018-07-10T09:17:58.257Z,96550.59
2018-07-10T09:20:26.375Z,96549.41
2018-07-10T09:22:53.168Z,96545.36
2018-07-10T09:25:19.937Z,96549.66
2018-07-10T09:27:46.678Z,96544.16
2018-07-10T09:30:13.364Z,96542.90
2018-07-10T09:32:44.201Z,96542.30
2018-07-10T09:35:14.461Z,96537.97
2018-07-10T09:37:45.713Z,96544.09
2018-07-10T09:40:17.608Z,96554.96
2018-07-10T09:42:50.149Z,96558.55
2018-07-10T09:45:16.910Z,96557.52
2018-07-10T09:47:43.709Z,96551.91
2018-07-10T09:50:10.496Z,96539.03
2018-07-10T09:52:37.175Z,96530.84
2018-07-10T09:55:03.992Z,96533.82
2018-07-10T09:57:31.496Z,96563.36
2018-07-10T09:59:58.284Z,96546.58
2018-07-10T10:02:33.320Z,96549.67
2018-07-10T10:05:01.484Z,96542.45
2018-07-10T10:07:28.409Z,96538.77
2018-07-10T10:09:55.196Z,96547.16
2018-07-10T10:12:22.124Z,96551.77
2018-07-10T10:14:49.598Z,96539.77
2018-07-10T10:17:16.592Z,96548.55
2018-07-10T10:19:43.482Z,96549.25
2018-07-10T10:22:10.234Z,96554.39
2018-07-10T10:24:37.113Z,96555.44
2018-07-10T10:27:03.823Z,96567.39
2018-07-10T10:29:30.562Z,96568.02
2018-07-10T10:31:57.226Z,96559.86
2018-07-10T10:34:23.946Z,96561.78
2018-07-10T10:36:50.671Z,96559.93
2018-07-10T10:39:17.470Z,96561.87
2018-07-10T10:41:44.291Z,96561.25
2018-07-10T10:44:11.037Z,96561.50
2018-07-10T10:46:37.819Z,96564.64
2018-07-10T10:49:04.591Z,96562.40
2018-07-10T10:51:31.385Z,96558.53
2018-07-10T10:53:58.149Z,96555.81
2018-07-10T10:56:24.955Z,96570.09
2018-07-10T10:58:52.174Z,96575.27
2018-07-10T11:01:18.917Z,96572.85
2018-07-10T11:03:45.674Z,96563.28
2018-07-10T11:06:12.458Z,96567.82
2018-07-10T11:08:39.273Z,96564.76
2018-07-10T11:11:05.991Z,96561.91
2018-07-10T11:13:32.708Z,96558.80
2018-07-10T11:15:59.482Z,96554.98
2018-07-10T11:18:34.805Z,96552.38
2018-07-10T11:21:02.387Z,96541.34
2018-07-10T11:23:37.187Z,96546.80
2018-07-10T11:26:05.671Z,96549.15
2018-07-10T11:28:32.418Z,96554.80
2018-07-10T11:30:59.115Z,96559.93
2018-07-10T11:33:25.815Z,96550.89
2018-07-10T11:35:52.546Z,96552.04
2018-07-10T11:38:19.318Z,96540.30
2018-07-10T11:40:46.069Z,96556.58
2018-07-10T11:45:39.532Z,96554.25
2018-07-10T11:48:06.407Z,96551.83
2018-07-10T11:50:33.267Z,96553.62
2018-07-10T11:53:00.065Z,96555.70
2018-07-10T11:55:26.781Z,96548.71
2018-07-10T11:57:53.556Z,96553.70
2018-07-10T12:00:20.606Z,96542.09
2018-07-10T12:02:49.137Z,96548.37
2018-07-10T12:05:17.252Z,96545.91
2018-07-10T12:07:45.244Z,96547.73
2018-07-10T12:10:17.536Z,96543.43
2018-07-10T12:12:44.569Z,96520.88
2018-07-10T12:15:11.374Z,96529.12
2018-07-10T12:17:38.090Z,96541.88
2018-07-10T12:20:04.877Z,96530.33
2018-07-10T12:22:32.150Z,96531.82
2018-07-10T12:24:58.870Z,96526.20
2018-07-10T12:27:25.577Z,96520.78
2018-07-10T12:29:52.344Z,96522.91
2018-07-10T12:32:19.070Z,96513.70
2018-07-10T12:34:45.801Z,96520.39
2018-07-10T12:37:12.543Z,96529.17
2018-07-10T12:39:39.310Z,96522.97
2018-07-10T12:42:06.083Z,96531.42
2018-07-10T12:44:32.851Z,96521.62
2018-07-10T12:46:59.614Z,96526.52
2018-07-10T12:49:26.373Z,96521.73
2018-07-10T12:51:53.024Z,96527.05
2018-07-10T12:54:19.736Z,96514.66
2018-07-10T12:56:46.535Z,96514.27
2018-07-10T12:59:13.277Z,96505.27
2018-07-10T13:01:40.158Z,96498.42
2018-07-10T13:04:06.891Z,96497.75
2018-07-10T13:06:33.604Z,96493.28
2018-07-10T13:09:00.349Z,96496.17
2018-07-10T13:11:27.092Z,96496.62
2018-07-10T13:13:53.866Z,96486.17
2018-07-10T13:16:20.754Z,96482.45
2018-07-10T13:18:47.493Z,96481.94
2018-07-10T13:21:14.311Z,96472.05
2018-07-10T13:23:41.016Z,96484.70
2018-07-10T13:26:07.889Z,96472.42
2018-07-10T13:28:34.625Z,96466.13
2018-07-10T13:31:01.407Z,96478.92
2018-07-10T13:33:28.114Z,96470.23
2018-07-10T13:35:54.911Z,96477.12
2018-07-10T13:38:21.961Z,96475.61
2018-07-10T13:40:49.008Z,96475.16
2018-07-10T13:43:15.759Z,96472.78
2018-07-10T13:45:42.588Z,96466.33
2018-07-10T13:48:09.327Z,96466.33
2018-07-10T13:50:36.212Z,96465.70
2018-07-10T13:53:03.468Z,96469.17
2018-07-10T13:55:30.310Z,96469.70
2018-07-10T13:58:03.532Z,96474.27
2018-07-10T14:00:32.071Z,96483.08
2018-07-10T14:02:58.861Z,96481.58
2018-07-10T14:05:25.534Z,96477.36
2018-07-10T14:07:52.375Z,96476.23
2018-07-10T14:10:19.126Z,96471.06
2018-07-10T14:12:45.874Z,96469.30
2018-07-10T14:15:12.681Z,96487.47
2018-07-10T14:17:40.600Z,96486.08
2018-07-10T14:20:07.380Z,96485.29
2018-07-10T14:22:34.110Z,96486.98
2018-07-10T14:25:00.835Z,96493.91
2018-07-10T14:27:27.553Z,96487.02
2018-07-10T14:29:54.411Z,96487.94
2018-07-10T14:32:21.285Z,96480.77
2018-07-10T14:34:53.041Z,96483.92
2018-07-10T14:37:20.530Z,96483.52
2018-07-10T14:39:47.351Z,96470.29
2018-07-10T14:42:14.115Z,96476.55
2018-07-10T14:44:41.902Z,96470.20
2018-07-10T14:47:08.596Z,96482.03
2018-07-10T14:49:35.281Z,96475.84
2018-07-10T14:52:02.111Z,96472.16
2018-07-10T14:54:28.802Z,96471.89
2018-07-10T14:56:55.483Z,96471.53
2018-07-10T14:59:22.178Z,96464.66
2018-07-10T15:01:48.908Z,96463.21
2018-07-10T15:04:15.603Z,96473.80
2018-07-10T15:06:42.296Z,96472.86
2018-07-10T15:09:09.546Z,96480.04
2018-07-10T15:11:36.194Z,96465.23
2018-07-10T15:14:04.619Z,96423.41
2018-07-10T15:17:36.908Z,96459.16
2018-07-10T15:20:05.621Z,96464.63
2018-07-10T15:22:32.975Z,96450.84
2018-07-10T15:24:59.642Z,96472.19
2018-07-10T15:27:26.345Z,96466.45
2018-07-10T15:29:53.146Z,96463.89
2018-07-10T15:32:19.882Z,96452.67
2018-07-10T15:34:46.589Z,96462.36
2018-07-10T15:37:13.359Z,96465.59
2018-07-10T15:39:40.055Z,96449.51
2018-07-10T15:42:06.761Z,96452.03
2018-07-10T15:44:33.515Z,96446.64
2018-07-10T15:47:00.225Z,96443.30
2018-07-10T15:49:26.948Z,96439.30
2018-07-10T15:51:53.656Z,96440.67
2018-07-10T15:54:20.400Z,96426.98
2018-07-10T15:56:47.134Z,96422.94
2018-07-10T15:59:13.925Z,96434.31
2018-07-10T16:01:40.649Z,96438.69
2018-07-10T16:04:07.620Z,96437.05
2018-07-10T16:06:34.810Z,96436.23
2018-07-10T16:09:06.361Z,96430.41
2018-07-10T16:11:33.369Z,96421.34
2018-07-10T16:14:00.118Z,96428.45
2018-07-10T16:16:26.831Z,96428.38
2018-07-10T16:18:55.467Z,96440.92
2018-07-10T16:21:24.510Z,96433.25
2018-07-10T16:23:51.295Z,96438.17
2018-07-10T16:26:20.919Z,96437.23
2018-07-10T16:28:47.624Z,96435.92
2018-07-10T16:31:16.098Z,96436.55
2018-07-10T16:33:42.891Z,96435.77
2018-07-10T16:36:09.793Z,96439.80
2018-07-10T16:38:36.819Z,96436.75
2018-07-10T16:41:09.350Z,96439.31
2018-07-10T16:43:36.101Z,96451.47
2018-07-10T16:46:02.890Z,96446.47
2018-07-10T16:48:35.837Z,96444.98
2018-07-10T16:51:08.923Z,96444.13
2018-07-10T16:53:36.049Z,96449.48
2018-07-10T16:56:02.804Z,96451.44
2018-07-10T16:58:31.057Z,96446.14
2018-07-10T17:00:57.923Z,96451.03
2018-07-10T17:03:24.883Z,96444.39
2018-07-10T17:05:51.601Z,96447.37
2018-07-10T17:08:18.279Z,96449.14
2018-07-10T17:10:44.966Z,96451.86
2018-07-10T17:13:11.730Z,96457.01
2018-07-10T17:15:38.481Z,96456.17
2018-07-10T17:18:05.200Z,96454.19
2018-07-10T17:20:31.927Z,96443.61
2018-07-10T17:22:58.723Z,96444.13
2018-07-10T17:25:25.488Z,96456.73
2018-07-10T17:27:52.292Z,96458.25
2018-07-10T17:30:18.992Z,96454.27
2018-07-10T17:32:45.751Z,96457.23
2018-07-10T17:35:12.538Z,96448.33
2018-07-10T17:37:40.691Z,96452.48
2018-07-10T17:40:07.401Z,96456.94
2018-07-10T17:42:34.446Z,96455.64
2018-07-10T17:45:01.468Z,96450.16
2018-07-10T17:47:28.188Z,96453.79
2018-07-10T17:52:22.109Z,96453.09
2018-07-10T17:54:48.977Z,96453.42
2018-07-10T17:57:15.950Z,96451.41
2018-07-10T17:59:42.662Z,96462.50
2018-07-10T18:02:10.087Z,96463.82
2018-07-10T18:04:36.825Z,96467.41
2018-07-10T18:07:03.475Z,96464.02
2018-07-10T18:09:30.248Z,96470.22
2018-07-10T18:11:57.026Z,96464.63
2018-07-10T18:14:23.860Z,96463.64
2018-07-10T18:16:50.564Z,96473.52
2018-07-10T18:19:17.243Z,96469.67
2018-07-10T18:21:44.056Z,96469.30
2018-07-10T18:24:10.867Z,96474.08
2018-07-10T18:26:37.694Z,96472.95
2018-07-10T18:29:05.071Z,96473.67
2018-07-10T18:31:31.841Z,96480.81
2018-07-10T18:33:58.508Z,96474.90
2018-07-10T18:36:25.367Z,96480.75
2018-07-10T18:38:52.076Z,96483.39
2018-07-10T18:41:18.751Z,96485.73
2018-07-10T18:43:45.702Z,96490.38
2018-07-10T18:46:12.525Z,96483.81
2018-07-10T18:48:39.400Z,96486.92
2018-07-10T18:51:06.177Z,96493.52
2018-07-10T18:53:32.992Z,96492.28
2018-07-10T18:55:59.753Z,96496.66
2018-07-10T18:58:32.298Z,96494.08
2018-07-10T19:01:01.182Z,96498.16
2018-07-10T19:03:28.184Z,96500.65
2018-07-10T19:05:56.139Z,96502.56
2018-07-10T19:08:23.005Z,96504.33
2018-07-10T19:10:49.649Z,96493.57
2018-07-10T19:13:16.930Z,96500.51
2018-07-10T19:15:44.685Z,96500.05
2018-07-10T19:18:11.405Z,96497.22
2018-07-10T19:20:38.966Z,96508.75
2018-07-10T19:23:08.286Z,96502.16
2018-07-10T19:25:35.013Z,96504.86
2018-07-10T19:28:02.290Z,96506.58
2018-07-10T19:30:30.506Z,96506.73
2018-07-10T19:33:00.256Z,96507.65
2018-07-10T19:35:27.007Z,96507.44
2018-07-10T19:37:53.658Z,96514.67
2018-07-10T19:40:20.401Z,96512.62
2018-07-10T19:42:48.738Z,96516.45
2018-07-10T19:45:15.460Z,96513.75
2018-07-10T19:47:42.208Z,96513.34
2018-07-10T19:50:14.134Z,96512.20
2018-07-10T19:52:41.671Z,96510.00
2018-07-10T19:55:09.722Z,96512.50
2018-07-10T19:57:46.703Z,96516.17
2018-07-10T20:00:13.464Z,96521.77
2018-07-10T20:02:40.230Z,96523.66
2018-07-10T20:05:09.871Z,96522.27
2018-07-10T20:07:39.081Z,96524.13
2018-07-10T20:11:13.900Z,96515.75
2018-07-10T20:13:44.160Z,96519.39
2018-07-10T20:16:12.413Z,96516.16
2018-07-10T20:18:55.468Z,96520.80
2018-07-10T20:21:26.944Z,96527.06
2018-07-10T20:24:02.330Z,96523.32
2018-07-10T20:26:36.352Z,96529.78
2018-07-10T20:29:09.081Z,96536.44
2018-07-10T20:31:38.030Z,96528.27
2018-07-10T20:34:10.056Z,96529.29
2018-07-10T20:36:37.137Z,96526.70
2018-07-10T20:39:04.493Z,96530.17
2018-07-10T20:41:34.571Z,96533.06
2018-07-10T20:44:03.586Z,96536.80
2018-07-10T20:46:33.156Z,96536.09
2018-07-10T20:49:01.311Z,96539.23
2018-07-10T20:51:35.785Z,96542.64
2018-07-10T20:54:06.781Z,96547.81
2018-07-10T20:56:39.137Z,96551.14
2018-07-10T20:59:11.326Z,96546.34
2018-07-10T21:01:38.794Z,96547.97
2018-07-10T21:04:12.813Z,96546.38
2018-07-10T21:06:42.651Z,96550.50
2018-07-10T21:09:10.654Z,96548.80
2018-07-10T21:11:43.904Z,96542.97
2018-07-10T21:14:13.434Z,96542.28
2018-07-10T21:16:44.347Z,96543.66
2018-07-10T21:19:17.448Z,96546.05
2018-07-10T21:21:49.714Z,96550.73
2018-07-10T21:24:17.124Z,96542.66
2018-07-10T21:26:53.318Z,96541.90
2018-07-10T21:29:21.988Z,96539.78
2018-07-10T21:31:51.351Z,96533.06
2018-07-10T21:34:29.821Z,96536.08
2018-07-10T21:37:03.540Z,96530.77
2018-07-10T21:39:57.696Z,96533.28
2018-07-10T21:42:33.274Z,96529.94
2018-07-10T21:45:04.204Z,96526.77
2018-07-10T21:47:35.590Z,96521.53
2018-07-10T21:50:03.568Z,96522.27
2018-07-10T21:52:30.291Z,96520.99
2018-07-10T21:55:00.397Z,96525.28
2018-07-10T21:57:30.380Z,96529.52
2018-07-10T21:59:58.812Z,96522.23
2018-07-10T22:02:29.921Z,96520.06
2018-07-10T22:04:57.455Z,96520.91
2018-07-10T22:07:26.190Z,96521.09
2018-07-10T22:09:52.867Z,96525.27
2018-07-10T22:12:20.397Z,96514.16
2018-07-10T22:14:48.287Z,96518.59
2018-07-10T22:17:16.625Z,96516.23
2018-07-10T22:19:43.481Z,96519.47
2018-07-10T22:22:15.419Z,96508.16
2018-07-10T22:24:43.278Z,96509.94
2018-07-10T22:27:10.019Z,96506.70
2018-07-10T22:29:43.686Z,96512.00
2018-07-10T22:32:16.070Z,96511.04
2018-07-10T22:34:43.033Z,96505.80
2018-07-10T22:37:09.926Z,96509.03
2018-07-10T22:39:36.609Z,96502.03
2018-07-10T22:42:03.331Z,96499.31
2018-07-10T22:44:33.109Z,96494.45
2018-07-10T22:46:59.954Z,96483.30
2018-07-10T22:49:26.702Z,96502.24
2018-07-10T22:51:54.584Z,96500.94
2018-07-10T22:54:21.300Z,96499.99
2018-07-10T22:56:48.148Z,96499.12
2018-07-10T22:59:14.889Z,96500.80
2018-07-10T23:01:45.612Z,96502.45
2018-07-10T23:04:12.697Z,96501.05
2018-07-10T23:06:39.462Z,96491.77
2018-07-10T23:11:39.595Z,96491.64
2018-07-10T23:14:06.330Z,96500.10
2018-07-10T23:16:36.133Z,96487.37
2018-07-10T23:19:02.944Z,96488.80
2018-07-10T23:21:29.717Z,96480.14
2018-07-10T23:23:56.397Z,96489.55
2018-07-10T23:26:23.108Z,96479.52
2018-07-10T23:28:49.894Z,96477.48
2018-07-10T23:31:22.779Z,96477.98
2018-07-10T23:33:52.215Z,96479.77
2018-07-10T23:36:18.888Z,96473.11
2018-07-10T23:38:49.040Z,96474.78
2018-07-10T23:41:18.820Z,96468.58
2018-07-10T23:43:46.660Z,96475.24
2018-07-10T23:46:19.365Z,96474.63
2018-07-10T23:48:46.087Z,96459.63
2018-07-10T23:51:12.821Z,96480.47
2018-07-10T23:53:49.579Z,96473.68
2018-07-10T23:56:16.731Z,96473.32
2018-07-10T23:58:43.528Z,96469.14
